Time;durP1;ratioP1;P1;durP2;ratioP2;P2;SDS_P1;SDS_P2;PMS_P1;PMS_P2;Temp;Humidity;BMP_temperature;BMP_pressure;BME280_temperature;BME280_humidity;BME280_pressure;Samples;Min_cycle;Max_cycle;Signal;HPM_P1;HPM_P2
2022/02/01 00:02:15;;;;;;;4.85;1.55;;;9.70;70.50;;;;;;5096990;28;20028;-68
2022/02/01 00:12:52;;;;;;;7.45;1.92;;;9.70;70.60;;;;;;5055141;28;20048;-69
2022/02/01 00:37:09;;;;;;;7.22;2.10;;;9.70;70.70;;;;;;5042732;28;20512;-68
2022/02/01 00:39:45;;;;;;;4.97;1.70;;;9.70;70.70;;;;;;5035330;28;20561;-68
2022/02/01 00:42:17;;;;;;;3.55;1.58;;;9.70;70.70;;;;;;5034783;28;20128;-68
2022/02/01 00:44:43;;;;;;;6.43;1.90;;;9.70;71.00;;;;;;5046746;28;20504;-68
2022/02/01 00:47:09;;;;;;;5.45;1.98;;;9.80;71.20;;;;;;5063176;28;20062;-68
2022/02/01 00:49:36;;;;;;;3.75;1.67;;;9.80;71.10;;;;;;5049317;28;20044;-68
2022/02/01 00:52:03;;;;;;;6.15;1.77;;;9.80;70.90;;;;;;5055313;28;20029;-68
2022/02/01 00:54:28;;;;;;;4.90;1.80;;;9.80;71.10;;;;;;5053381;28;20048;-68
2022/02/01 00:56:55;;;;;;;4.28;1.63;;;9.90;71.30;;;;;;5053178;28;20051;-68
2022/02/01 00:59:20;;;;;;;7.18;2.08;;;9.90;70.80;;;;;;5053260;28;20052;-68
2022/02/01 01:01:46;;;;;;;7.25;2.40;;;9.90;70.70;;;;;;5050159;28;20021;-68
2022/02/01 01:04:11;;;;;;;4.93;1.77;;;9.90;70.70;;;;;;5067526;28;20118;-68
2022/02/01 01:06:37;;;;;;;6.40;2.28;;;9.80;70.70;;;;;;5089254;28;20058;-68
2022/02/01 01:09:03;;;;;;;5.53;1.70;;;9.80;70.70;;;;;;5091482;28;20088;-68
2022/02/01 01:11:29;;;;;;;4.70;1.75;;;9.80;70.80;;;;;;5085660;28;20026;-69
2022/02/01 01:17:32;;;;;;;6.03;1.67;;;9.90;71.00;;;;;;5075581;28;20056;-68
2022/02/01 01:44:58;;;;;;;4.80;1.98;;;9.90;71.30;;;;;;5038560;28;20033;-68
2022/02/01 01:55:41;;;;;;;4.75;1.65;;;9.90;72.50;;;;;;5041643;28;20036;-68
2022/02/01 01:58:07;;;;;;;7.28;1.80;;;9.90;71.90;;;;;;5104651;28;20022;-68
2022/02/01 02:03:09;;;;;;;3.65;1.38;;;9.90;71.80;;;;;;5101374;28;20480;-68
2022/02/01 02:05:35;;;;;;;4.35;1.83;;;9.90;71.80;;;;;;5102909;28;20027;-68
2022/02/01 02:08:02;;;;;;;5.22;1.35;;;9.90;71.90;;;;;;5073712;28;20024;-68
2022/02/01 02:10:32;;;;;;;5.18;1.30;;;10.00;72.00;;;;;;5091424;28;20024;-68
2022/02/01 02:16:00;;;;;;;5.25;1.38;;;10.00;72.00;;;;;;5094630;28;20028;-67
2022/02/01 02:18:30;;;;;;;4.38;1.20;;;10.00;72.00;;;;;;5088269;28;20135;-68
2022/02/01 02:20:58;;;;;;;5.85;1.50;;;10.10;72.20;;;;;;5071114;28;20051;-68
2022/02/01 02:23:24;;;;;;;4.85;1.40;;;10.10;72.10;;;;;;5087544;28;20442;-68
2022/02/01 02:25:51;;;;;;;5.45;1.58;;;10.10;72.40;;;;;;5091657;28;20046;-68
2022/02/01 02:28:18;;;;;;;4.80;1.60;;;10.10;72.10;;;;;;5093642;28;20082;-68
2022/02/01 02:30:46;;;;;;;4.78;1.30;;;10.10;72.30;;;;;;5096022;28;20552;-68
2022/02/01 02:33:14;;;;;;;5.82;1.38;;;10.10;72.50;;;;;;5094007;28;20095;-68
2022/02/01 02:36:06;;;;;;;6.03;1.55;;;10.10;72.00;;;;;;5093982;28;20036;-67
2022/02/01 02:41:36;;;;;;;6.03;1.50;;;10.10;72.60;;;;;;5094564;28;20111;-67
2022/02/01 02:46:50;;;;;;;5.45;1.20;;;10.10;72.80;;;;;;5096909;28;20077;-69
2022/02/01 02:49:20;;;;;;;5.07;1.70;;;10.10;72.90;;;;;;5093786;28;20511;-67
2022/02/01 02:51:46;;;;;;;7.32;1.85;;;10.10;73.10;;;;;;5098846;28;20020;-67
2022/02/01 02:54:13;;;;;;;6.03;1.55;;;10.20;72.90;;;;;;5098270;28;20048;-67
2022/02/01 02:56:49;;;;;;;7.07;1.63;;;10.20;73.00;;;;;;5098308;28;20396;-67
2022/02/01 02:59:16;;;;;;;8.48;1.70;;;10.20;72.50;;;;;;5097250;28;20475;-67
2022/02/01 03:01:43;;;;;;;7.40;1.50;;;10.10;72.70;;;;;;5095495;28;20022;-68
2022/02/01 03:04:08;;;;;;;4.88;1.30;;;10.20;72.60;;;;;;5099149;28;20039;-67
2022/02/01 03:06:34;;;;;;;4.53;1.30;;;10.10;72.80;;;;;;5097736;28;20024;-68
2022/02/01 03:09:00;;;;;;;3.83;1.40;;;10.10;73.10;;;;;;5098056;28;20059;-68
2022/02/01 03:11:26;;;;;;;6.03;1.65;;;10.10;73.20;;;;;;5098247;28;20026;-67
2022/02/01 03:13:56;;;;;;;4.75;1.60;;;10.10;73.00;;;;;;5095392;28;20114;-67
2022/02/01 03:21:33;;;;;;;5.50;1.45;;;10.10;73.70;;;;;;5097477;28;20050;-67
2022/02/01 03:23:59;;;;;;;6.95;1.60;;;10.10;73.40;;;;;;5100187;28;20488;-67
2022/02/01 03:26:25;;;;;;;4.35;1.27;;;10.10;73.60;;;;;;5107518;28;20480;-67
2022/02/01 03:28:50;;;;;;;6.72;1.60;;;10.10;73.70;;;;;;5089756;28;20064;-67
2022/02/01 03:31:17;;;;;;;4.78;1.40;;;10.10;73.60;;;;;;5096859;28;20035;-67
2022/02/01 03:33:46;;;;;;;4.40;1.55;;;10.10;73.40;;;;;;5104103;28;20032;-67
2022/02/01 03:36:13;;;;;;;6.35;1.50;;;10.00;73.70;;;;;;5095160;28;20024;-67
2022/02/01 03:38:38;;;;;;;6.03;2.05;;;10.00;73.60;;;;;;5097414;28;20516;-67
2022/02/01 03:41:04;;;;;;;5.13;1.48;;;10.10;73.70;;;;;;5077893;28;20104;-67
2022/02/01 03:43:30;;;;;;;5.75;1.52;;;10.10;74.10;;;;;;5093700;28;20025;-67
2022/02/01 03:45:56;;;;;;;3.97;1.40;;;10.10;73.70;;;;;;5107489;28;20026;-67
2022/02/01 03:48:22;;;;;;;8.07;1.80;;;10.10;73.50;;;;;;5079217;28;20031;-67
2022/02/01 03:50:47;;;;;;;6.78;1.70;;;10.10;73.60;;;;;;5096788;28;20024;-67
2022/02/01 03:53:13;;;;;;;5.82;1.67;;;10.10;73.90;;;;;;5097325;28;20031;-67
2022/02/01 03:55:39;;;;;;;6.38;1.63;;;10.10;74.30;;;;;;5092810;28;20033;-67
2022/02/01 03:58:05;;;;;;;7.38;1.45;;;10.10;74.40;;;;;;5106724;28;20034;-67
2022/02/01 04:00:32;;;;;;;6.70;1.60;;;10.10;74.10;;;;;;5097456;28;20032;-67
2022/02/01 04:03:02;;;;;;;3.88;1.33;;;10.10;74.40;;;;;;5096471;28;20066;-67
2022/02/01 04:05:28;;;;;;;8.93;1.70;;;10.20;74.50;;;;;;5096746;28;20016;-66
2022/02/01 04:07:53;;;;;;;7.18;1.63;;;10.20;73.90;;;;;;5094815;28;20035;-67
2022/02/01 04:10:20;;;;;;;5.88;1.23;;;10.10;74.60;;;;;;5095737;28;20487;-66
2022/02/01 04:12:48;;;;;;;6.72;1.20;;;10.20;74.50;;;;;;5098261;28;20534;-67
2022/02/01 04:15:14;;;;;;;7.70;1.55;;;10.20;74.30;;;;;;5096758;28;20033;-68
2022/02/01 04:17:39;;;;;;;8.32;1.77;;;10.20;74.40;;;;;;5097014;28;20027;-67
2022/02/01 04:20:06;;;;;;;8.25;1.65;;;10.30;74.30;;;;;;5095425;28;20039;-67
2022/02/01 04:22:32;;;;;;;5.88;1.20;;;10.20;74.30;;;;;;5092944;28;20521;-67
2022/02/01 04:24:57;;;;;;;5.63;1.42;;;10.30;75.80;;;;;;5090434;28;20057;-67
2022/02/01 04:27:32;;;;;;;6.53;1.40;;;10.30;74.60;;;;;;5097499;28;20502;-67
2022/02/01 04:30:08;;;;;;;5.50;1.45;;;10.30;74.20;;;;;;5090386;28;20036;-66
2022/02/01 04:32:36;;;;;;;6.20;1.40;;;10.30;74.70;;;;;;5094726;28;20016;-68
2022/02/01 04:35:04;;;;;;;4.82;1.23;;;10.40;74.50;;;;;;5095025;28;20059;-67
2022/02/01 04:37:30;;;;;;;4.97;1.38;;;10.30;74.40;;;;;;5092744;28;20082;-67
2022/02/01 04:39:57;;;;;;;8.52;2.22;;;10.40;74.80;;;;;;5098091;28;20095;-69
2022/02/01 04:42:25;;;;;;;6.43;1.67;;;10.40;74.40;;;;;;5096362;28;20112;-66
2022/02/01 04:44:51;;;;;;;5.45;1.20;;;10.30;74.60;;;;;;5096255;28;20023;-66
2022/02/01 04:47:17;;;;;;;4.88;1.27;;;10.30;74.90;;;;;;5105729;28;20019;-67
2022/02/01 04:49:43;;;;;;;6.97;1.38;;;10.40;75.20;;;;;;5092241;28;20028;-68
2022/02/01 04:52:09;;;;;;;6.63;1.60;;;10.40;75.00;;;;;;5097626;28;20028;-68
2022/02/01 04:54:34;;;;;;;5.20;1.20;;;10.30;75.00;;;;;;5096351;28;20040;-69
2022/02/01 04:57:00;;;;;;;6.30;1.60;;;10.30;75.20;;;;;;5096272;28;20039;-68
2022/02/01 04:59:26;;;;;;;3.95;1.20;;;10.40;75.20;;;;;;5095931;28;20035;-68
2022/02/01 05:01:51;;;;;;;5.55;1.20;;;10.40;75.10;;;;;;5092751;28;20032;-68
2022/02/01 05:04:19;;;;;;;4.78;1.35;;;10.40;75.20;;;;;;5095087;28;20031;-68
2022/02/01 05:06:51;;;;;;;5.53;1.25;;;10.50;75.60;;;;;;5097195;28;20035;-68
2022/02/01 05:09:16;;;;;;;8.43;1.30;;;10.50;75.30;;;;;;5089216;28;20032;-68
2022/02/01 05:11:42;;;;;;;9.77;1.85;;;10.40;75.40;;;;;;5110067;27;20032;-68
2022/02/01 05:14:18;;;;;;;6.28;1.63;;;10.50;75.30;;;;;;5085791;28;20093;-68
2022/02/01 05:16:58;;;;;;;5.55;1.30;;;10.50;75.80;;;;;;5076269;28;20039;-68
2022/02/01 05:22:00;;;;;;;4.22;1.42;;;10.50;75.40;;;;;;5097544;28;20020;-69
2022/02/01 05:24:26;;;;;;;6.00;1.05;;;10.50;76.00;;;;;;5096583;28;20024;-69
2022/02/01 05:26:56;;;;;;;4.75;1.40;;;10.50;75.30;;;;;;5099142;28;20114;-69
2022/02/01 05:29:22;;;;;;;6.05;1.30;;;10.50;76.00;;;;;;5095475;28;20096;-69
2022/02/01 05:31:51;;;;;;;9.02;1.30;;;10.50;75.80;;;;;;5091773;28;20119;-68
2022/02/01 05:34:17;;;;;;;6.97;1.60;;;10.50;75.80;;;;;;5094562;28;20036;-69
2022/02/01 05:36:42;;;;;;;8.50;1.40;;;10.50;76.10;;;;;;5096430;28;20021;-68
2022/02/01 05:39:23;;;;;;;3.83;1.08;;;10.50;75.70;;;;;;5095202;28;20043;-68
2022/02/01 05:41:54;;;;;;;5.55;1.35;;;10.50;75.90;;;;;;5095081;28;20019;-68
2022/02/01 05:44:19;;;;;;;6.18;1.45;;;10.50;76.00;;;;;;5076954;28;20088;-69
2022/02/01 05:46:45;;;;;;;7.22;1.65;;;10.50;76.30;;;;;;5101048;28;20049;-68
2022/02/01 05:49:11;;;;;;;4.22;1.20;;;10.50;75.80;;;;;;5095723;28;20040;-68
2022/02/01 05:51:37;;;;;;;3.63;1.50;;;10.50;76.30;;;;;;5093976;28;20024;-68
2022/02/01 05:54:04;;;;;;;6.15;1.63;;;10.50;76.30;;;;;;5094948;28;20032;-68
2022/02/01 05:56:30;;;;;;;7.50;1.33;;;10.50;76.30;;;;;;5094942;28;20027;-68
2022/02/01 05:58:55;;;;;;;7.25;1.75;;;10.50;76.20;;;;;;5092769;28;20031;-68
2022/02/01 06:01:21;;;;;;;10.70;1.63;;;10.60;76.30;;;;;;5092717;28;20077;-69
2022/02/01 06:03:47;;;;;;;7.57;1.55;;;10.60;76.20;;;;;;5112306;27;20035;-68
2022/02/01 06:06:13;;;;;;;4.95;1.13;;;10.60;76.40;;;;;;5094624;28;20031;-68
2022/02/01 06:08:39;;;;;;;5.38;1.13;;;10.60;76.50;;;;;;5094858;28;20024;-69
2022/02/01 06:11:05;;;;;;;6.18;1.05;;;10.60;76.80;;;;;;5075808;28;20076;-68
2022/02/01 06:13:36;;;;;;;5.47;1.30;;;10.60;76.00;;;;;;5090901;28;20072;-68
2022/02/01 06:16:05;;;;;;;8.10;1.30;;;10.60;76.90;;;;;;5096480;28;20024;-69
2022/02/01 06:18:31;;;;;;;6.93;1.45;;;10.60;76.80;;;;;;5094589;28;20024;-68
2022/02/01 06:20:59;;;;;;;7.18;1.60;;;10.60;76.60;;;;;;5094373;28;20043;-68
2022/02/01 06:23:24;;;;;;;4.15;1.27;;;10.60;77.10;;;;;;5090362;28;20028;-68
2022/02/01 06:25:51;;;;;;;7.35;2.20;;;10.60;77.10;;;;;;5084687;28;20043;-68
2022/02/01 06:28:25;;;;;;;6.60;1.85;;;10.60;76.80;;;;;;5094044;28;20020;-68
2022/02/01 06:30:51;;;;;;;6.97;1.38;;;10.60;76.90;;;;;;5094268;28;20103;-68
2022/02/01 06:33:18;;;;;;;7.22;1.73;;;10.70;77.10;;;;;;5094594;28;20082;-69
2022/02/01 06:35:44;;;;;;;6.35;1.23;;;10.70;77.20;;;;;;5076252;28;20028;-68
2022/02/01 06:38:11;;;;;;;4.60;1.30;;;10.70;77.40;;;;;;5094138;28;20065;-68
2022/02/01 06:40:37;;;;;;;8.23;1.35;;;10.70;77.30;;;;;;5089141;28;20044;-68
2022/02/01 06:43:03;;;;;;;7.25;1.45;;;10.70;77.30;;;;;;5095718;28;20031;-66
2022/02/01 06:45:29;;;;;;;8.85;1.65;;;10.70;77.00;;;;;;5080727;28;20145;-67
2022/02/01 06:47:56;;;;;;;4.50;1.20;;;10.80;76.70;;;;;;5100030;28;20488;-68
2022/02/01 06:50:22;;;;;;;5.25;1.33;;;10.70;76.80;;;;;;5094069;28;20035;-67
2022/02/01 06:52:56;;;;;;;7.57;1.45;;;10.70;76.50;;;;;;5080711;28;20016;-67
2022/02/01 06:55:33;;;;;;;5.03;1.20;;;10.70;76.70;;;;;;5091542;28;20134;-67
2022/02/01 06:58:03;;;;;;;6.97;1.60;;;10.70;77.50;;;;;;5094842;28;20459;-67
2022/02/01 07:00:29;;;;;;;7.93;1.55;;;10.70;77.40;;;;;;5093997;28;20086;-66
2022/02/01 07:02:55;;;;;;;6.50;1.30;;;10.70;77.50;;;;;;5093254;28;20477;-67
2022/02/01 07:05:21;;;;;;;5.60;1.27;;;10.70;77.40;;;;;;5094776;28;20074;-69
2022/02/01 07:07:46;;;;;;;5.53;1.60;;;10.70;77.30;;;;;;5090946;28;20024;-66
2022/02/01 07:10:12;;;;;;;7.95;1.45;;;10.70;77.30;;;;;;5094273;28;20031;-68
2022/02/01 07:12:37;;;;;;;6.43;1.35;;;10.70;77.90;;;;;;5094253;28;20059;-69
2022/02/01 07:15:03;;;;;;;4.97;1.08;;;10.70;77.20;;;;;;5091176;28;20040;-69
2022/02/01 07:17:29;;;;;;;7.20;1.33;;;10.80;77.10;;;;;;5088442;28;20093;-68
2022/02/01 07:19:55;;;;;;;6.68;1.42;;;10.70;77.20;;;;;;5090046;28;20029;-69
2022/02/01 07:22:20;;;;;;;7.57;1.45;;;10.70;77.70;;;;;;5092574;28;20031;-68
2022/02/01 07:24:59;;;;;;;5.10;1.25;;;10.70;77.30;;;;;;5095806;28;20032;-69
2022/02/01 07:27:37;;;;;;;4.07;1.08;;;10.80;77.70;;;;;;5092778;28;20020;-66
2022/02/01 07:30:07;;;;;;;6.20;1.50;;;10.80;77.90;;;;;;5093926;28;20048;-68
2022/02/01 07:32:36;;;;;;;5.75;1.25;;;10.80;77.70;;;;;;5094153;28;20047;-68
2022/02/01 07:35:03;;;;;;;5.93;1.02;;;10.80;77.60;;;;;;5092600;28;20136;-67
2022/02/01 07:37:28;;;;;;;9.43;1.08;;;10.80;77.70;;;;;;5073545;28;20446;-68
2022/02/01 07:39:54;;;;;;;8.00;1.30;;;10.80;77.80;;;;;;5099811;28;20165;-68
2022/02/01 07:42:20;;;;;;;7.05;1.45;;;10.80;77.80;;;;;;5097114;28;20484;-67
2022/02/01 07:44:45;;;;;;;7.43;1.73;;;10.80;77.50;;;;;;5097732;28;20103;-68
2022/02/01 07:47:18;;;;;;;7.35;1.85;;;10.80;77.50;;;;;;5097485;28;20032;-67
2022/02/01 07:49:43;;;;;;;7.77;1.40;;;10.80;77.60;;;;;;5078517;28;20020;-68
2022/02/01 07:52:09;;;;;;;4.03;1.20;;;10.80;77.60;;;;;;5098785;28;20270;-69
2022/02/01 07:54:35;;;;;;;6.03;1.38;;;10.90;78.00;;;;;;5097564;28;20036;-69
2022/02/01 07:57:00;;;;;;;6.22;1.40;;;10.90;77.90;;;;;;5097014;28;20025;-68
2022/02/01 07:59:26;;;;;;;5.05;1.15;;;10.90;78.00;;;;;;5095677;28;20077;-68
2022/02/01 08:01:52;;;;;;;7.15;1.20;;;10.90;77.80;;;;;;5094746;28;20027;-67
2022/02/01 08:04:17;;;;;;;7.63;1.55;;;10.90;78.00;;;;;;5096496;28;20035;-67
2022/02/01 08:06:43;;;;;;;5.43;1.30;;;10.90;78.30;;;;;;5098171;28;20023;-69
2022/02/01 08:09:20;;;;;;;6.55;1.42;;;10.90;77.90;;;;;;5097179;28;20016;-68
2022/02/01 08:11:45;;;;;;;8.00;1.45;;;10.90;78.10;;;;;;5096525;28;20111;-68
2022/02/01 08:25:08;;;;;;;6.13;1.30;;;11.10;78.30;;;;;;5050875;28;20028;-68
2022/02/01 08:27:34;;;;;;;6.18;1.02;;;11.20;78.10;;;;;;5055199;28;20049;-68
2022/02/01 08:30:05;;;;;;;8.00;1.40;;;11.10;77.60;;;;;;5056323;28;20028;-68
2022/02/01 08:32:30;;;;;;;5.13;1.63;;;11.10;78.70;;;;;;5046609;28;20037;-69
2022/02/01 08:34:56;;;;;;;4.13;1.38;;;11.10;78.10;;;;;;5036174;28;20045;-68
2022/02/01 08:37:22;;;;;;;6.43;1.50;;;11.10;78.10;;;;;;5066768;28;20067;-69
2022/02/01 08:39:48;;;;;;;8.93;1.55;;;11.20;78.50;;;;;;5043107;28;20514;-68
2022/02/01 08:42:14;;;;;;;7.70;1.45;;;11.20;78.70;;;;;;5054687;28;20021;-68
2022/02/01 08:44:42;;;;;;;6.43;1.55;;;11.30;78.60;;;;;;5054647;28;20599;-69
2022/02/01 08:47:08;;;;;;;5.00;1.08;;;11.40;78.40;;;;;;5036635;28;20025;-69
2022/02/01 08:49:34;;;;;;;7.32;1.42;;;11.50;78.00;;;;;;5050773;28;20570;-69
2022/02/01 08:52:04;;;;;;;8.18;1.40;;;11.50;77.80;;;;;;5055393;28;20028;-70
2022/02/01 08:54:32;;;;;;;5.35;1.25;;;11.50;78.10;;;;;;5086970;28;20048;-69
2022/02/01 08:59:44;;;;;;;9.45;1.48;;;11.60;77.40;;;;;;5096115;28;20035;-69
2022/02/01 09:02:10;;;;;;;4.13;1.17;;;11.60;77.10;;;;;;5077678;28;20142;-69
2022/02/01 09:04:36;;;;;;;8.23;1.50;;;11.50;77.10;;;;;;5089391;28;20024;-69
2022/02/01 09:07:03;;;;;;;5.38;1.33;;;11.60;77.30;;;;;;5098536;28;20054;-69
2022/02/01 09:09:30;;;;;;;6.18;1.50;;;11.50;77.40;;;;;;5096565;28;20021;-69
2022/02/01 09:11:56;;;;;;;7.55;1.20;;;11.50;77.40;;;;;;5096522;28;20055;-69
2022/02/01 09:14:22;;;;;;;7.88;1.40;;;11.50;77.90;;;;;;5096249;28;20431;-69
2022/02/01 09:16:47;;;;;;;5.88;1.55;;;11.50;77.70;;;;;;5092650;28;20032;-68
2022/02/01 09:19:14;;;;;;;7.78;1.52;;;11.60;77.60;;;;;;5102623;28;20031;-73
2022/02/01 09:21:40;;;;;;;7.38;1.55;;;11.60;77.70;;;;;;5087230;28;20024;-70
2022/02/01 09:24:06;;;;;;;7.05;1.42;;;11.70;78.20;;;;;;5084148;28;20052;-70
2022/02/01 09:26:33;;;;;;;6.95;1.45;;;11.70;78.00;;;;;;5089168;28;20043;-72
2022/02/01 09:28:59;;;;;;;8.30;1.90;;;11.80;78.10;;;;;;5091027;28;20028;-74
2022/02/01 09:31:25;;;;;;;3.05;1.40;;;11.80;77.40;;;;;;5084067;28;20034;-70
2022/02/01 09:33:50;;;;;;;7.22;1.40;;;11.80;77.30;;;;;;5089142;28;20024;-71
2022/02/01 09:36:16;;;;;;;9.55;1.70;;;11.80;77.40;;;;;;5089937;28;20565;-71
2022/02/01 09:38:42;;;;;;;10.48;1.70;;;11.90;77.60;;;;;;5092795;28;20457;-70
2022/02/01 09:41:08;;;;;;;7.65;1.63;;;12.00;77.80;;;;;;5084939;28;20043;-71
2022/02/01 09:43:34;;;;;;;8.45;1.50;;;12.00;77.70;;;;;;5083876;28;20077;-70
2022/02/01 09:46:00;;;;;;;7.13;1.58;;;12.10;77.30;;;;;;5100685;28;20027;-70
2022/02/01 09:48:27;;;;;;;7.55;1.60;;;12.10;77.10;;;;;;5079708;28;20052;-70
2022/02/01 09:50:52;;;;;;;6.03;1.30;;;12.30;77.70;;;;;;5073702;28;20031;-72
2022/02/01 09:53:19;;;;;;;9.38;1.50;;;12.40;77.60;;;;;;5105943;27;20036;-70
2022/02/01 09:55:47;;;;;;;5.88;1.63;;;12.50;76.70;;;;;;5075724;28;20043;-70
2022/02/01 09:58:13;;;;;;;6.95;1.83;;;12.50;76.70;;;;;;5088594;28;20047;-71
2022/02/01 10:00:46;;;;;;;6.60;1.35;;;12.50;76.30;;;;;;5094999;28;20035;-72
2022/02/01 10:03:19;;;;;;;6.07;1.63;;;12.40;76.10;;;;;;5075564;28;20058;-73
2022/02/01 10:06:03;;;;;;;;;;;12.40;76.50;;;;;;5086818;28;20030;-73
2022/02/01 10:08:29;;;;;;;9.93;1.70;;;12.30;75.90;;;;;;5088409;28;19954;-73
2022/02/01 10:10:55;;;;;;;4.60;1.27;;;12.20;76.20;;;;;;5103469;28;20079;-73
2022/02/01 10:13:21;;;;;;;4.90;1.25;;;12.20;76.70;;;;;;5089853;28;20114;-73
2022/02/01 10:15:59;;;;;;;5.55;1.50;;;12.20;76.50;;;;;;5102950;28;20575;-73
2022/02/01 10:18:31;;;;;;;7.90;1.55;;;12.20;76.60;;;;;;5075836;28;20020;-75
2022/02/01 10:21:09;;;;;;;9.60;1.45;;;12.20;76.40;;;;;;5080138;28;20055;-72
2022/02/01 10:23:38;;;;;;;5.50;1.38;;;12.20;76.50;;;;;;5095672;28;20528;-77
2022/02/01 10:26:16;;;;;;;6.88;1.50;;;12.20;76.70;;;;;;5083399;28;20028;-73
2022/02/01 10:31:46;;;;;;;8.77;1.73;;;12.20;76.70;;;;;;5088444;28;20034;-74
2022/02/01 10:36:58;;;;;;;8.50;2.15;;;12.20;76.90;;;;;;5084848;28;20020;-72
2022/02/01 10:39:29;;;;;;;7.45;1.60;;;12.20;76.80;;;;;;5093821;28;20058;-71
2022/02/01 10:42:08;;;;;;;7.97;1.50;;;12.20;77.00;;;;;;5105757;28;20025;-72
2022/02/01 10:44:45;;;;;;;8.75;2.08;;;12.20;76.90;;;;;;5088631;28;20021;-71
2022/02/01 10:47:31;;;;;;;9.18;1.67;;;12.30;76.80;;;;;;5074208;28;20055;-70
2022/02/01 10:50:12;;;;;;;11.57;1.80;;;12.20;76.60;;;;;;5088920;28;20107;-71
2022/02/01 10:52:41;;;;;;;11.52;2.25;;;12.30;77.00;;;;;;5088537;28;20050;-71
2022/02/01 10:55:09;;;;;;;6.22;1.75;;;12.30;76.80;;;;;;5086233;28;20067;-70
2022/02/01 10:57:35;;;;;;;7.05;1.90;;;12.30;78.00;;;;;;5089975;28;20028;-71
2022/02/01 11:00:01;;;;;;;6.63;1.77;;;12.40;76.70;;;;;;5081970;28;20029;-72
2022/02/01 11:02:29;;;;;;;6.93;1.58;;;12.30;76.70;;;;;;5086054;28;20055;-70
2022/02/01 11:04:58;;;;;;;6.90;1.38;;;12.30;76.80;;;;;;5086983;28;20051;-70
2022/02/01 11:07:23;;;;;;;8.63;1.80;;;12.30;76.80;;;;;;5084269;28;20023;-71
2022/02/01 11:09:49;;;;;;;7.53;1.67;;;12.30;76.90;;;;;;5094981;28;20043;-73
2022/02/01 11:12:15;;;;;;;9.13;1.52;;;12.30;76.90;;;;;;5080094;28;20094;-72
2022/02/01 11:14:43;;;;;;;7.82;1.60;;;12.40;76.80;;;;;;5094425;28;20044;-72
2022/02/01 11:17:14;;;;;;;6.22;1.55;;;12.40;76.90;;;;;;5106881;28;20142;-71
2022/02/01 11:19:51;;;;;;;7.25;1.73;;;12.30;76.50;;;;;;5080744;28;20020;-74
2022/02/01 11:22:22;;;;;;;8.48;1.67;;;12.30;76.70;;;;;;5100900;28;20028;-72
2022/02/01 11:24:53;;;;;;;6.90;1.27;;;12.40;76.70;;;;;;5082952;28;20052;-74
2022/02/01 11:27:31;;;;;;;4.90;1.20;;;12.40;76.60;;;;;;5095610;28;20080;-72
2022/02/01 11:30:02;;;;;;;7.28;2.00;;;12.30;76.80;;;;;;5092988;28;20059;-71
2022/02/01 11:32:36;;;;;;;8.00;1.80;;;12.40;76.90;;;;;;5097976;28;20107;-70
2022/02/01 11:35:11;;;;;;;7.88;2.03;;;12.30;76.70;;;;;;5092295;28;20512;-70
2022/02/01 11:37:51;;;;;;;6.50;1.70;;;12.40;76.90;;;;;;5083967;28;20799;-70
2022/02/01 11:40:18;;;;;;;7.22;1.40;;;12.30;76.90;;;;;;5088656;28;20492;-70
2022/02/01 11:43:00;;;;;;;6.10;1.95;;;12.40;76.90;;;;;;5084722;28;20021;-69
2022/02/01 11:45:36;;;;;;;6.00;1.52;;;12.40;76.70;;;;;;5080800;28;20027;-68
2022/02/01 11:48:24;;;;;;;5.15;1.38;;;12.40;77.00;;;;;;5097071;28;20125;-69
2022/02/01 11:50:54;;;;;;;7.05;1.83;;;12.50;77.00;;;;;;5093577;28;20020;-70
2022/02/01 11:53:23;;;;;;;8.05;1.70;;;12.50;77.00;;;;;;5079320;28;20035;-73
2022/02/01 11:55:51;;;;;;;7.47;1.55;;;12.50;77.00;;;;;;5086885;28;20105;-72
2022/02/01 11:58:35;;;;;;;6.97;1.42;;;12.50;77.00;;;;;;5082841;28;20531;-71
2022/02/01 12:01:03;;;;;;;6.35;1.50;;;12.50;76.90;;;;;;5096538;27;20705;-72
2022/02/01 12:03:34;;;;;;;7.80;1.40;;;12.50;77.10;;;;;;5084785;28;20016;-70
2022/02/01 12:06:06;;;;;;;8.90;2.00;;;12.50;77.10;;;;;;5091368;28;20047;-71
2022/02/01 12:08:33;;;;;;;8.25;1.48;;;12.50;77.00;;;;;;5072815;28;20028;-71
2022/02/01 12:11:01;;;;;;;8.07;1.60;;;12.50;77.10;;;;;;5080116;28;20024;-69
2022/02/01 12:13:29;;;;;;;6.00;1.83;;;12.60;77.20;;;;;;5071471;28;20134;-71
2022/02/01 12:15:57;;;;;;;8.85;1.77;;;12.60;77.10;;;;;;5091113;28;20502;-70
2022/02/01 12:18:38;;;;;;;5.55;1.63;;;12.60;77.10;;;;;;5077057;28;20028;-70
2022/02/01 12:21:24;;;;;;;9.52;1.83;;;12.60;77.20;;;;;;5088062;28;20028;-71
2022/02/01 12:23:51;;;;;;;8.50;1.65;;;12.60;77.10;;;;;;5088911;28;20057;-71
2022/02/01 12:26:22;;;;;;;5.93;1.60;;;12.60;76.90;;;;;;5094038;28;20503;-71
2022/02/01 12:28:50;;;;;;;6.80;1.92;;;12.60;77.10;;;;;;5091757;28;20028;-71
2022/02/01 12:31:16;;;;;;;8.32;1.85;;;12.60;77.00;;;;;;5093165;28;20023;-71
2022/02/01 12:33:44;;;;;;;5.22;1.65;;;12.60;77.50;;;;;;5098739;28;20123;-70
2022/02/01 12:36:13;;;;;;;4.68;2.03;;;12.60;77.60;;;;;;5089426;28;20401;-71
2022/02/01 12:38:40;;;;;;;7.07;1.55;;;12.70;77.50;;;;;;5092125;28;20024;-70
2022/02/01 12:41:15;;;;;;;7.07;2.17;;;12.70;77.60;;;;;;5103924;28;20145;-71
2022/02/01 12:46:50;;;;;;;7.30;3.28;;;12.70;77.60;;;;;;5096748;28;20024;-72
2022/02/01 12:49:16;;;;;;;8.77;2.72;;;12.70;77.30;;;;;;5101811;28;20110;-72
2022/02/01 12:51:46;;;;;;;8.18;3.03;;;12.70;77.80;;;;;;5096995;28;20103;-72
2022/02/01 12:54:26;;;;;;;7.25;2.20;;;12.70;77.70;;;;;;5100584;28;20716;-72
2022/02/01 12:57:04;;;;;;;6.10;1.58;;;12.80;77.80;;;;;;5094632;28;20024;-72
2022/02/01 12:59:38;;;;;;;4.43;1.30;;;12.80;77.70;;;;;;5103206;28;20020;-72
2022/02/01 13:02:08;;;;;;;6.13;1.42;;;12.90;77.70;;;;;;5094153;28;20027;-72
2022/02/01 13:04:34;;;;;;;4.78;1.27;;;12.90;77.60;;;;;;5088100;28;20025;-72
2022/02/01 13:07:01;;;;;;;5.45;1.40;;;12.90;77.70;;;;;;5087680;28;20096;-72
2022/02/01 13:15:15;;;;;;;4.90;1.40;;;13.00;78.50;;;;;;5082429;28;20046;-72
2022/02/01 13:17:46;;;;;;;3.28;1.00;;;13.00;77.70;;;;;;5085964;28;20012;-72
2022/02/01 13:20:17;;;;;;;4.28;1.20;;;13.00;77.90;;;;;;5087347;28;20085;-71
2022/02/01 13:23:05;;;;;;;5.65;1.55;;;13.00;78.00;;;;;;5103425;28;20081;-71
2022/02/01 13:25:39;;;;;;;8.30;1.45;;;13.00;77.70;;;;;;5095724;28;20032;-71
2022/02/01 13:28:12;;;;;;;4.35;1.48;;;13.00;78.10;;;;;;5090596;28;20016;-73
2022/02/01 13:30:45;;;;;;;5.55;1.27;;;13.00;78.20;;;;;;5100769;27;20020;-72
2022/02/01 13:33:14;;;;;;;4.40;1.13;;;13.00;78.40;;;;;;5094931;28;20501;-71
2022/02/01 13:35:47;;;;;;;5.07;1.10;;;13.10;78.20;;;;;;5100946;28;20415;-72
2022/02/01 13:38:13;;;;;;;3.55;0.85;;;13.10;78.40;;;;;;5093452;28;20093;-72
2022/02/01 13:40:39;;;;;;;6.00;1.10;;;13.10;78.40;;;;;;5099427;28;20068;-71
2022/02/01 13:43:18;;;;;;;7.22;1.40;;;13.10;78.50;;;;;;5089707;28;20016;-70
2022/02/01 13:45:45;;;;;;;7.10;1.20;;;13.10;78.20;;;;;;5088027;28;20034;-70
2022/02/01 13:48:24;;;;;;;5.13;1.25;;;13.10;78.30;;;;;;5092875;28;20107;-69
2022/02/01 13:50:53;;;;;;;6.60;1.25;;;13.10;78.60;;;;;;5096623;28;20035;-70
2022/02/01 13:53:20;;;;;;;3.60;1.10;;;13.10;78.70;;;;;;5099630;28;20135;-70
2022/02/01 13:55:57;;;;;;;4.40;0.93;;;13.10;78.70;;;;;;5084988;28;20115;-70
2022/02/01 13:58:23;;;;;;;3.53;1.25;;;13.10;78.90;;;;;;5088647;28;20020;-70
2022/02/01 14:00:53;;;;;;;2.88;0.90;;;13.10;79.00;;;;;;5089059;28;20042;-72
2022/02/01 14:03:36;;;;;;;4.03;1.15;;;13.10;78.80;;;;;;5087395;28;20052;-72
2022/02/01 14:09:12;;;;;;;3.22;0.90;;;13.10;79.00;;;;;;5013198;28;20045;-74
2022/02/01 14:11:54;;;;;;;3.63;1.80;;;13.10;78.90;;;;;;4999554;28;20083;-72
2022/02/01 14:16:02;;;;;;;4.20;0.90;;;13.10;79.30;;;;;;5010325;28;20049;-70
2022/02/01 14:36:16;;;;;;;5.13;1.88;;;13.00;79.60;;;;;;4972004;28;20594;-70
2022/02/01 14:46:49;;;;;;;4.13;1.00;;;13.00;79.90;;;;;;5037252;28;20037;-69
2022/02/01 14:49:15;;;;;;;5.90;1.40;;;13.00;79.90;;;;;;5041051;28;20078;-72
2022/02/01 14:51:41;;;;;;;3.70;0.98;;;13.00;80.00;;;;;;5048094;28;20058;-70
2022/02/01 14:54:10;;;;;;;5.38;1.23;;;13.00;80.20;;;;;;5051866;28;20064;-70
2022/02/01 14:56:38;;;;;;;2.42;0.85;;;13.00;79.90;;;;;;5048053;28;20115;-70
2022/02/01 15:15:03;;;;;;;3.80;1.10;;;13.00;80.20;;;;;;5030884;28;20513;-70
2022/02/01 15:17:28;;;;;;;3.53;0.90;;;13.00;80.30;;;;;;5040536;28;20029;-71
2022/02/01 15:19:54;;;;;;;4.13;1.42;;;12.90;79.90;;;;;;5034820;28;20033;-70
2022/02/01 15:22:20;;;;;;;5.75;1.30;;;12.90;80.30;;;;;;5046366;28;20259;-71
2022/02/01 15:24:46;;;;;;;4.65;1.23;;;12.90;80.20;;;;;;5034792;28;20029;-71
2022/02/01 15:27:12;;;;;;;5.43;1.10;;;12.90;80.50;;;;;;5050375;28;20034;-71
2022/02/01 15:29:37;;;;;;;6.35;1.23;;;12.90;80.50;;;;;;5031526;28;20107;-71
2022/02/01 15:32:04;;;;;;;4.40;0.80;;;12.90;81.10;;;;;;5039042;28;20482;-71
2022/02/01 15:34:32;;;;;;;5.25;1.13;;;12.80;81.10;;;;;;5041274;28;20072;-71
2022/02/01 15:37:02;;;;;;;4.00;0.95;;;12.80;80.40;;;;;;5021524;28;20035;-72